sensor_id;sensor_type;location;lat;lon;timestamp;P1;durP1;ratioP1;P2;durP2;ratioP2
12762;SDS011;6445;52.490;13.378;2023-07-31T00:01:18;5.70;;;2.05;;
12762;SDS011;6445;52.490;13.378;2023-07-31T00:03:43;4.85;;;2.25;;
12762;SDS011;6445;52.490;13.378;2023-07-31T00:06:09;5.25;;;2.15;;
12762;SDS011;6445;52.490;13.378;2023-07-31T00:08:34;3.90;;;2.05;;
12762;SDS011;6445;52.490;13.378;2023-07-31T00:10:59;5.03;;;2.30;;
12762;SDS011;6445;52.490;13.378;2023-07-31T00:13:24;3.15;;;2.17;;
12762;SDS011;6445;52.490;13.378;2023-07-31T00:15:50;6.60;;;2.33;;
12762;SDS011;6445;52.490;13.378;2023-07-31T00:18:15;4.75;;;2.17;;
12762;SDS011;6445;52.490;13.378;2023-07-31T00:20:41;5.10;;;2.38;;
12762;SDS011;6445;52.490;13.378;2023-07-31T00:23:06;5.45;;;2.20;;
12762;SDS011;6445;52.490;13.378;2023-07-31T00:25:31;4.90;;;2.13;;
12762;SDS011;6445;52.490;13.378;2023-07-31T00:27:56;4.18;;;2.25;;
12762;SDS011;6445;52.490;13.378;2023-07-31T00:30:22;4.45;;;2.45;;
12762;SDS011;6445;52.490;13.378;2023-07-31T00:32:47;6.20;;;2.10;;
12762;SDS011;6445;52.490;13.378;2023-07-31T00:35:12;2.38;;;2.13;;
12762;SDS011;6445;52.490;13.378;2023-07-31T00:37:37;4.47;;;2.33;;
12762;SDS011;6445;52.490;13.378;2023-07-31T00:40:03;4.80;;;2.30;;
12762;SDS011;6445;52.490;13.378;2023-07-31T00:42:28;6.28;;;2.72;;
12762;SDS011;6445;52.490;13.378;2023-07-31T00:44:54;4.78;;;2.17;;
12762;SDS011;6445;52.490;13.378;2023-07-31T00:47:19;5.47;;;2.60;;
12762;SDS011;6445;52.490;13.378;2023-07-31T00:49:44;5.13;;;2.28;;
12762;SDS011;6445;52.490;13.378;2023-07-31T00:52:10;3.63;;;2.35;;
12762;SDS011;6445;52.490;13.378;2023-07-31T00:54:35;3.65;;;2.30;;
12762;SDS011;6445;52.490;13.378;2023-07-31T00:57:01;6.13;;;3.00;;
12762;SDS011;6445;52.490;13.378;2023-07-31T00:59:27;4.65;;;2.67;;
12762;SDS011;6445;52.490;13.378;2023-07-31T01:01:52;4.32;;;2.53;;
12762;SDS011;6445;52.490;13.378;2023-07-31T01:04:18;4.75;;;2.70;;
12762;SDS011;6445;52.490;13.378;2023-07-31T01:07:00;4.60;;;2.47;;
12762;SDS011;6445;52.490;13.378;2023-07-31T01:12:32;6.07;;;2.90;;
12762;SDS011;6445;52.490;13.378;2023-07-31T01:15:02;5.13;;;2.83;;
12762;SDS011;6445;52.490;13.378;2023-07-31T01:17:35;4.88;;;2.70;;
12762;SDS011;6445;52.490;13.378;2023-07-31T01:20:02;5.53;;;2.78;;
12762;SDS011;6445;52.490;13.378;2023-07-31T01:27:59;3.80;;;2.78;;
12762;SDS011;6445;52.490;13.378;2023-07-31T01:30:29;4.20;;;2.50;;
12762;SDS011;6445;52.490;13.378;2023-07-31T01:33:00;5.55;;;3.30;;
12762;SDS011;6445;52.490;13.378;2023-07-31T01:35:31;6.13;;;2.92;;
12762;SDS011;6445;52.490;13.378;2023-07-31T01:37:58;4.50;;;2.70;;
12762;SDS011;6445;52.490;13.378;2023-07-31T01:40:23;5.10;;;2.92;;
12762;SDS011;6445;52.490;13.378;2023-07-31T01:42:48;5.53;;;2.55;;
12762;SDS011;6445;52.490;13.378;2023-07-31T01:45:14;3.92;;;2.80;;
12762;SDS011;6445;52.490;13.378;2023-07-31T01:47:39;4.85;;;2.58;;
12762;SDS011;6445;52.490;13.378;2023-07-31T01:50:04;3.92;;;2.75;;
12762;SDS011;6445;52.490;13.378;2023-07-31T01:52:30;7.45;;;2.97;;
12762;SDS011;6445;52.490;13.378;2023-07-31T01:54:55;3.58;;;2.78;;
12762;SDS011;6445;52.490;13.378;2023-07-31T01:57:20;4.75;;;2.80;;
12762;SDS011;6445;52.490;13.378;2023-07-31T01:59:46;4.97;;;2.60;;
12762;SDS011;6445;52.490;13.378;2023-07-31T02:02:11;5.65;;;2.80;;
12762;SDS011;6445;52.490;13.378;2023-07-31T02:04:36;7.03;;;2.88;;
12762;SDS011;6445;52.490;13.378;2023-07-31T02:07:03;3.85;;;2.80;;
12762;SDS011;6445;52.490;13.378;2023-07-31T02:09:28;4.88;;;2.95;;
12762;SDS011;6445;52.490;13.378;2023-07-31T02:11:54;5.40;;;2.90;;
12762;SDS011;6445;52.490;13.378;2023-07-31T02:14:19;3.78;;;2.70;;
12762;SDS011;6445;52.490;13.378;2023-07-31T02:16:44;5.82;;;2.65;;
12762;SDS011;6445;52.490;13.378;2023-07-31T02:19:09;5.72;;;3.30;;
12762;SDS011;6445;52.490;13.378;2023-07-31T02:21:35;5.07;;;2.92;;
12762;SDS011;6445;52.490;13.378;2023-07-31T02:24:00;6.10;;;3.30;;
12762;SDS011;6445;52.490;13.378;2023-07-31T02:26:25;4.07;;;3.15;;
12762;SDS011;6445;52.490;13.378;2023-07-31T02:28:50;5.82;;;3.35;;
12762;SDS011;6445;52.490;13.378;2023-07-31T02:31:15;7.00;;;3.28;;
12762;SDS011;6445;52.490;13.378;2023-07-31T02:33:41;7.30;;;3.10;;
12762;SDS011;6445;52.490;13.378;2023-07-31T02:36:06;5.47;;;3.33;;
12762;SDS011;6445;52.490;13.378;2023-07-31T02:38:31;3.65;;;3.28;;
12762;SDS011;6445;52.490;13.378;2023-07-31T02:40:56;6.95;;;3.40;;
12762;SDS011;6445;52.490;13.378;2023-07-31T02:43:22;7.53;;;3.28;;
12762;SDS011;6445;52.490;13.378;2023-07-31T02:45:50;7.38;;;3.00;;
12762;SDS011;6445;52.490;13.378;2023-07-31T02:48:16;5.50;;;3.50;;
12762;SDS011;6445;52.490;13.378;2023-07-31T02:50:42;6.80;;;3.58;;
12762;SDS011;6445;52.490;13.378;2023-07-31T02:53:07;5.50;;;3.83;;
12762;SDS011;6445;52.490;13.378;2023-07-31T02:55:32;5.28;;;3.50;;
12762;SDS011;6445;52.490;13.378;2023-07-31T02:57:57;4.93;;;3.30;;
12762;SDS011;6445;52.490;13.378;2023-07-31T03:00:23;6.78;;;3.38;;
12762;SDS011;6445;52.490;13.378;2023-07-31T03:02:49;8.15;;;3.85;;
12762;SDS011;6445;52.490;13.378;2023-07-31T03:05:14;6.75;;;3.80;;
12762;SDS011;6445;52.490;13.378;2023-07-31T03:07:39;6.05;;;4.03;;
12762;SDS011;6445;52.490;13.378;2023-07-31T03:10:05;6.55;;;3.85;;
12762;SDS011;6445;52.490;13.378;2023-07-31T03:12:30;8.95;;;4.25;;
12762;SDS011;6445;52.490;13.378;2023-07-31T03:14:55;5.97;;;4.22;;
12762;SDS011;6445;52.490;13.378;2023-07-31T03:17:21;11.30;;;5.05;;
12762;SDS011;6445;52.490;13.378;2023-07-31T03:19:46;6.60;;;4.30;;
12762;SDS011;6445;52.490;13.378;2023-07-31T03:22:11;6.35;;;4.60;;
12762;SDS011;6445;52.490;13.378;2023-07-31T03:24:36;5.90;;;4.40;;
12762;SDS011;6445;52.490;13.378;2023-07-31T03:27:02;6.43;;;4.30;;
12762;SDS011;6445;52.490;13.378;2023-07-31T03:29:27;5.50;;;4.43;;
12762;SDS011;6445;52.490;13.378;2023-07-31T03:31:52;6.75;;;4.70;;
12762;SDS011;6445;52.490;13.378;2023-07-31T03:34:18;13.20;;;5.00;;
12762;SDS011;6445;52.490;13.378;2023-07-31T03:36:43;10.13;;;4.70;;
12762;SDS011;6445;52.490;13.378;2023-07-31T03:39:09;7.40;;;4.85;;
12762;SDS011;6445;52.490;13.378;2023-07-31T03:41:34;7.40;;;4.82;;
12762;SDS011;6445;52.490;13.378;2023-07-31T03:43:59;6.80;;;4.65;;
12762;SDS011;6445;52.490;13.378;2023-07-31T03:46:24;8.55;;;4.53;;
12762;SDS011;6445;52.490;13.378;2023-07-31T03:48:50;8.05;;;5.03;;
12762;SDS011;6445;52.490;13.378;2023-07-31T03:51:16;8.18;;;4.78;;
12762;SDS011;6445;52.490;13.378;2023-07-31T03:53:42;7.20;;;4.68;;
12762;SDS011;6445;52.490;13.378;2023-07-31T03:56:07;8.55;;;4.40;;
12762;SDS011;6445;52.490;13.378;2023-07-31T03:58:32;6.38;;;4.68;;
12762;SDS011;6445;52.490;13.378;2023-07-31T04:00:58;8.90;;;4.65;;
12762;SDS011;6445;52.490;13.378;2023-07-31T04:03:23;5.00;;;4.50;;
12762;SDS011;6445;52.490;13.378;2023-07-31T04:05:48;6.63;;;4.45;;
12762;SDS011;6445;52.490;13.378;2023-07-31T04:08:13;5.85;;;4.53;;
12762;SDS011;6445;52.490;13.378;2023-07-31T04:10:38;7.07;;;4.72;;
12762;SDS011;6445;52.490;13.378;2023-07-31T04:13:04;6.07;;;4.38;;
12762;SDS011;6445;52.490;13.378;2023-07-31T04:15:29;7.38;;;4.72;;
12762;SDS011;6445;52.490;13.378;2023-07-31T04:17:54;8.38;;;4.22;;
12762;SDS011;6445;52.490;13.378;2023-07-31T04:20:19;5.45;;;4.93;;
12762;SDS011;6445;52.490;13.378;2023-07-31T04:22:45;7.25;;;4.28;;
12762;SDS011;6445;52.490;13.378;2023-07-31T04:25:10;6.43;;;4.15;;
12762;SDS011;6445;52.490;13.378;2023-07-31T04:27:35;10.43;;;4.43;;
12762;SDS011;6445;52.490;13.378;2023-07-31T04:30:00;7.68;;;4.55;;
12762;SDS011;6445;52.490;13.378;2023-07-31T04:32:26;6.57;;;4.60;;
12762;SDS011;6445;52.490;13.378;2023-07-31T04:34:51;6.88;;;4.70;;
12762;SDS011;6445;52.490;13.378;2023-07-31T04:37:16;6.40;;;4.20;;
12762;SDS011;6445;52.490;13.378;2023-07-31T04:39:42;9.50;;;4.88;;
12762;SDS011;6445;52.490;13.378;2023-07-31T04:42:07;7.80;;;4.07;;
12762;SDS011;6445;52.490;13.378;2023-07-31T04:44:32;8.38;;;4.53;;
12762;SDS011;6445;52.490;13.378;2023-07-31T04:46:57;6.95;;;4.30;;
12762;SDS011;6445;52.490;13.378;2023-07-31T04:49:23;9.45;;;4.65;;
12762;SDS011;6445;52.490;13.378;2023-07-31T04:51:48;9.30;;;4.50;;
12762;SDS011;6445;52.490;13.378;2023-07-31T04:54:13;9.27;;;4.28;;
12762;SDS011;6445;52.490;13.378;2023-07-31T04:56:40;6.30;;;4.28;;
12762;SDS011;6445;52.490;13.378;2023-07-31T04:59:06;6.65;;;4.18;;
12762;SDS011;6445;52.490;13.378;2023-07-31T05:01:31;8.40;;;4.72;;
12762;SDS011;6445;52.490;13.378;2023-07-31T05:03:56;4.82;;;4.20;;
12762;SDS011;6445;52.490;13.378;2023-07-31T05:06:21;9.45;;;4.85;;
12762;SDS011;6445;52.490;13.378;2023-07-31T05:08:47;6.88;;;4.78;;
12762;SDS011;6445;52.490;13.378;2023-07-31T05:11:12;6.07;;;4.20;;
12762;SDS011;6445;52.490;13.378;2023-07-31T05:13:37;7.57;;;4.35;;
12762;SDS011;6445;52.490;13.378;2023-07-31T05:16:03;8.77;;;4.75;;
12762;SDS011;6445;52.490;13.378;2023-07-31T05:18:28;7.40;;;4.70;;
12762;SDS011;6445;52.490;13.378;2023-07-31T05:20:53;9.82;;;5.05;;
12762;SDS011;6445;52.490;13.378;2023-07-31T05:23:18;8.95;;;5.07;;
12762;SDS011;6445;52.490;13.378;2023-07-31T05:25:44;9.60;;;4.90;;
12762;SDS011;6445;52.490;13.378;2023-07-31T05:28:09;7.22;;;4.53;;
12762;SDS011;6445;52.490;13.378;2023-07-31T05:30:34;9.38;;;3.97;;
12762;SDS011;6445;52.490;13.378;2023-07-31T05:32:59;9.32;;;4.60;;
12762;SDS011;6445;52.490;13.378;2023-07-31T05:35:25;7.85;;;4.00;;
12762;SDS011;6445;52.490;13.378;2023-07-31T05:37:50;6.85;;;3.95;;
12762;SDS011;6445;52.490;13.378;2023-07-31T05:40:15;8.57;;;4.05;;
12762;SDS011;6445;52.490;13.378;2023-07-31T05:42:40;11.38;;;4.10;;
12762;SDS011;6445;52.490;13.378;2023-07-31T05:45:06;10.05;;;4.70;;
12762;SDS011;6445;52.490;13.378;2023-07-31T05:47:32;8.13;;;4.55;;
12762;SDS011;6445;52.490;13.378;2023-07-31T05:49:57;6.43;;;4.35;;
12762;SDS011;6445;52.490;13.378;2023-07-31T05:52:22;7.47;;;3.67;;
12762;SDS011;6445;52.490;13.378;2023-07-31T05:54:48;4.95;;;4.03;;
12762;SDS011;6445;52.490;13.378;2023-07-31T05:57:13;6.15;;;3.67;;
12762;SDS011;6445;52.490;13.378;2023-07-31T05:59:38;5.88;;;3.85;;
12762;SDS011;6445;52.490;13.378;2023-07-31T06:02:04;10.75;;;4.38;;
12762;SDS011;6445;52.490;13.378;2023-07-31T06:04:29;8.90;;;4.28;;
12762;SDS011;6445;52.490;13.378;2023-07-31T06:06:54;7.47;;;4.10;;
12762;SDS011;6445;52.490;13.378;2023-07-31T06:09:20;7.43;;;4.20;;
12762;SDS011;6445;52.490;13.378;2023-07-31T06:11:45;7.28;;;3.40;;
12762;SDS011;6445;52.490;13.378;2023-07-31T06:14:11;5.57;;;3.80;;
12762;SDS011;6445;52.490;13.378;2023-07-31T06:16:36;7.85;;;3.90;;
12762;SDS011;6445;52.490;13.378;2023-07-31T06:19:02;5.50;;;3.35;;
12762;SDS011;6445;52.490;13.378;2023-07-31T06:21:27;6.03;;;3.78;;
12762;SDS011;6445;52.490;13.378;2023-07-31T06:23:52;5.13;;;3.45;;
12762;SDS011;6445;52.490;13.378;2023-07-31T06:26:17;4.18;;;3.15;;
12762;SDS011;6445;52.490;13.378;2023-07-31T06:28:43;11.70;;;3.92;;
12762;SDS011;6445;52.490;13.378;2023-07-31T06:31:08;5.80;;;3.80;;
12762;SDS011;6445;52.490;13.378;2023-07-31T06:33:33;7.88;;;3.50;;
12762;SDS011;6445;52.490;13.378;2023-07-31T06:35:58;6.68;;;3.47;;
12762;SDS011;6445;52.490;13.378;2023-07-31T06:38:24;9.88;;;4.22;;
12762;SDS011;6445;52.490;13.378;2023-07-31T06:40:50;5.85;;;3.22;;
12762;SDS011;6445;52.490;13.378;2023-07-31T06:43:16;5.68;;;3.17;;
12762;SDS011;6445;52.490;13.378;2023-07-31T06:45:41;5.75;;;3.55;;
12762;SDS011;6445;52.490;13.378;2023-07-31T06:48:06;4.70;;;3.15;;
12762;SDS011;6445;52.490;13.378;2023-07-31T06:50:32;4.93;;;3.03;;
12762;SDS011;6445;52.490;13.378;2023-07-31T06:52:57;9.02;;;3.53;;
12762;SDS011;6445;52.490;13.378;2023-07-31T06:55:22;6.05;;;3.03;;
12762;SDS011;6445;52.490;13.378;2023-07-31T06:57:48;5.65;;;3.80;;
12762;SDS011;6445;52.490;13.378;2023-07-31T07:00:15;5.93;;;3.33;;
12762;SDS011;6445;52.490;13.378;2023-07-31T07:02:41;6.00;;;3.05;;
12762;SDS011;6445;52.490;13.378;2023-07-31T07:05:07;5.97;;;3.45;;
12762;SDS011;6445;52.490;13.378;2023-07-31T07:07:32;6.63;;;3.53;;
12762;SDS011;6445;52.490;13.378;2023-07-31T07:09:57;5.22;;;2.92;;
12762;SDS011;6445;52.490;13.378;2023-07-31T07:12:24;5.82;;;3.58;;
12762;SDS011;6445;52.490;13.378;2023-07-31T07:14:50;5.50;;;3.10;;
12762;SDS011;6445;52.490;13.378;2023-07-31T07:17:15;6.10;;;3.38;;
12762;SDS011;6445;52.490;13.378;2023-07-31T07:19:40;5.53;;;2.90;;
12762;SDS011;6445;52.490;13.378;2023-07-31T07:22:06;4.47;;;3.10;;
12762;SDS011;6445;52.490;13.378;2023-07-31T07:24:32;5.95;;;2.97;;
12762;SDS011;6445;52.490;13.378;2023-07-31T07:26:57;5.13;;;3.40;;
12762;SDS011;6445;52.490;13.378;2023-07-31T07:29:23;6.55;;;3.10;;
12762;SDS011;6445;52.490;13.378;2023-07-31T07:31:48;6.78;;;3.08;;
12762;SDS011;6445;52.490;13.378;2023-07-31T07:34:13;4.03;;;3.08;;
12762;SDS011;6445;52.490;13.378;2023-07-31T07:36:38;4.07;;;2.72;;
12762;SDS011;6445;52.490;13.378;2023-07-31T07:39:04;5.07;;;2.83;;
12762;SDS011;6445;52.490;13.378;2023-07-31T07:41:30;7.25;;;3.55;;
12762;SDS011;6445;52.490;13.378;2023-07-31T07:43:55;4.68;;;3.13;;
12762;SDS011;6445;52.490;13.378;2023-07-31T07:46:20;4.32;;;2.80;;
12762;SDS011;6445;52.490;13.378;2023-07-31T07:48:46;3.72;;;3.00;;
12762;SDS011;6445;52.490;13.378;2023-07-31T07:51:11;7.13;;;3.05;;
12762;SDS011;6445;52.490;13.378;2023-07-31T07:53:36;4.07;;;3.03;;
12762;SDS011;6445;52.490;13.378;2023-07-31T07:56:01;6.68;;;3.10;;
12762;SDS011;6445;52.490;13.378;2023-07-31T07:58:27;7.65;;;3.20;;
12762;SDS011;6445;52.490;13.378;2023-07-31T08:00:52;5.07;;;3.05;;
12762;SDS011;6445;52.490;13.378;2023-07-31T08:03:17;4.60;;;3.50;;
12762;SDS011;6445;52.490;13.378;2023-07-31T08:05:43;4.88;;;2.78;;
12762;SDS011;6445;52.490;13.378;2023-07-31T08:08:13;5.90;;;3.45;;
12762;SDS011;6445;52.490;13.378;2023-07-31T08:10:39;6.43;;;3.00;;
12762;SDS011;6445;52.490;13.378;2023-07-31T08:13:04;3.67;;;2.50;;
12762;SDS011;6445;52.490;13.378;2023-07-31T08:15:29;3.70;;;2.67;;
12762;SDS011;6445;52.490;13.378;2023-07-31T08:17:55;3.08;;;2.30;;
12762;SDS011;6445;52.490;13.378;2023-07-31T08:20:20;4.10;;;2.45;;
12762;SDS011;6445;52.490;13.378;2023-07-31T08:22:45;3.58;;;2.70;;
12762;SDS011;6445;52.490;13.378;2023-07-31T08:25:11;3.92;;;2.78;;
12762;SDS011;6445;52.490;13.378;2023-07-31T08:27:36;5.90;;;3.05;;
12762;SDS011;6445;52.490;13.378;2023-07-31T08:30:01;4.25;;;2.88;;
12762;SDS011;6445;52.490;13.378;2023-07-31T08:32:27;4.30;;;3.15;;
12762;SDS011;6445;52.490;13.378;2023-07-31T08:34:52;6.15;;;3.75;;
12762;SDS011;6445;52.490;13.378;2023-07-31T08:37:17;5.57;;;2.90;;
12762;SDS011;6445;52.490;13.378;2023-07-31T08:39:43;4.47;;;3.15;;
12762;SDS011;6445;52.490;13.378;2023-07-31T08:42:08;5.32;;;3.50;;
12762;SDS011;6445;52.490;13.378;2023-07-31T08:44:34;4.63;;;2.97;;
12762;SDS011;6445;52.490;13.378;2023-07-31T08:47:00;6.05;;;3.00;;
12762;SDS011;6445;52.490;13.378;2023-07-31T08:49:26;4.93;;;2.85;;
12762;SDS011;6445;52.490;13.378;2023-07-31T08:51:52;7.93;;;3.00;;
12762;SDS011;6445;52.490;13.378;2023-07-31T08:54:17;4.82;;;2.55;;
12762;SDS011;6445;52.490;13.378;2023-07-31T08:56:43;3.88;;;2.75;;
12762;SDS011;6445;52.490;13.378;2023-07-31T08:59:08;4.47;;;2.38;;
12762;SDS011;6445;52.490;13.378;2023-07-31T09:01:36;3.47;;;2.38;;
12762;SDS011;6445;52.490;13.378;2023-07-31T09:04:08;5.45;;;2.40;;
12762;SDS011;6445;52.490;13.378;2023-07-31T09:06:34;3.95;;;2.88;;
12762;SDS011;6445;52.490;13.378;2023-07-31T09:09:00;4.38;;;2.30;;
12762;SDS011;6445;52.490;13.378;2023-07-31T09:11:26;3.03;;;2.58;;
12762;SDS011;6445;52.490;13.378;2023-07-31T09:13:52;4.72;;;2.63;;
12762;SDS011;6445;52.490;13.378;2023-07-31T09:16:18;2.92;;;2.10;;
12762;SDS011;6445;52.490;13.378;2023-07-31T09:18:53;3.25;;;1.88;;
12762;SDS011;6445;52.490;13.378;2023-07-31T09:21:21;2.63;;;1.67;;
12762;SDS011;6445;52.490;13.378;2023-07-31T09:23:47;2.88;;;1.92;;
12762;SDS011;6445;52.490;13.378;2023-07-31T09:26:32;2.25;;;2.03;;
12762;SDS011;6445;52.490;13.378;2023-07-31T09:28:59;2.35;;;1.80;;
12762;SDS011;6445;52.490;13.378;2023-07-31T09:31:41;2.38;;;1.70;;
12762;SDS011;6445;52.490;13.378;2023-07-31T09:34:07;5.07;;;1.70;;
12762;SDS011;6445;52.490;13.378;2023-07-31T09:36:33;4.25;;;1.90;;
12762;SDS011;6445;52.490;13.378;2023-07-31T09:39:05;3.95;;;2.22;;
12762;SDS011;6445;52.490;13.378;2023-07-31T09:41:37;3.05;;;1.65;;
12762;SDS011;6445;52.490;13.378;2023-07-31T09:44:03;2.58;;;1.65;;
12762;SDS011;6445;52.490;13.378;2023-07-31T09:46:29;1.83;;;1.52;;
12762;SDS011;6445;52.490;13.378;2023-07-31T09:49:03;3.03;;;1.60;;
12762;SDS011;6445;52.490;13.378;2023-07-31T09:51:30;2.85;;;1.77;;
12762;SDS011;6445;52.490;13.378;2023-07-31T09:53:56;3.10;;;1.60;;
12762;SDS011;6445;52.490;13.378;2023-07-31T09:56:21;1.60;;;1.40;;
12762;SDS011;6445;52.490;13.378;2023-07-31T09:58:48;2.40;;;1.70;;
12762;SDS011;6445;52.490;13.378;2023-07-31T10:01:13;2.78;;;2.00;;
12762;SDS011;6445;52.490;13.378;2023-07-31T10:03:39;2.55;;;1.73;;
12762;SDS011;6445;52.490;13.378;2023-07-31T10:06:05;2.00;;;1.80;;
12762;SDS011;6445;52.490;13.378;2023-07-31T10:08:34;3.00;;;2.38;;
12762;SDS011;6445;52.490;13.378;2023-07-31T10:11:01;2.92;;;2.63;;
12762;SDS011;6445;52.490;13.378;2023-07-31T10:13:27;2.50;;;2.30;;
12762;SDS011;6445;52.490;13.378;2023-07-31T10:15:54;4.25;;;3.03;;
12762;SDS011;6445;52.490;13.378;2023-07-31T10:18:19;4.20;;;2.75;;
12762;SDS011;6445;52.490;13.378;2023-07-31T10:20:45;3.80;;;3.35;;
12762;SDS011;6445;52.490;13.378;2023-07-31T10:23:11;4.47;;;3.10;;
12762;SDS011;6445;52.490;13.378;2023-07-31T10:25:38;4.65;;;3.10;;
12762;SDS011;6445;52.490;13.378;2023-07-31T10:28:03;6.57;;;3.50;;
12762;SDS011;6445;52.490;13.378;2023-07-31T10:30:29;6.10;;;3.63;;
12762;SDS011;6445;52.490;13.378;2023-07-31T10:32:56;5.45;;;4.20;;
12762;SDS011;6445;52.490;13.378;2023-07-31T10:35:22;5.72;;;3.78;;
12762;SDS011;6445;52.490;13.378;2023-07-31T10:37:48;6.85;;;3.78;;
12762;SDS011;6445;52.490;13.378;2023-07-31T10:40:17;6.88;;;4.20;;
12762;SDS011;6445;52.490;13.378;2023-07-31T10:42:48;7.35;;;3.92;;
12762;SDS011;6445;52.490;13.378;2023-07-31T10:45:23;5.53;;;3.85;;
12762;SDS011;6445;52.490;13.378;2023-07-31T10:48:02;6.85;;;3.65;;
12762;SDS011;6445;52.490;13.378;2023-07-31T10:50:29;5.45;;;3.70;;
12762;SDS011;6445;52.490;13.378;2023-07-31T10:52:59;6.68;;;3.35;;
12762;SDS011;6445;52.490;13.378;2023-07-31T10:58:07;7.32;;;3.63;;
12762;SDS011;6445;52.490;13.378;2023-07-31T11:00:36;7.00;;;3.90;;
12762;SDS011;6445;52.490;13.378;2023-07-31T11:03:06;7.35;;;3.72;;
12762;SDS011;6445;52.490;13.378;2023-07-31T11:08:26;8.95;;;3.72;;
12762;SDS011;6445;52.490;13.378;2023-07-31T11:13:34;7.63;;;3.47;;
12762;SDS011;6445;52.490;13.378;2023-07-31T11:16:04;5.07;;;3.50;;
12762;SDS011;6445;52.490;13.378;2023-07-31T11:18:29;5.50;;;3.38;;
12762;SDS011;6445;52.490;13.378;2023-07-31T11:20:54;7.70;;;4.10;;
12762;SDS011;6445;52.490;13.378;2023-07-31T11:23:22;6.28;;;3.08;;
12762;SDS011;6445;52.490;13.378;2023-07-31T11:25:47;6.05;;;3.40;;
12762;SDS011;6445;52.490;13.378;2023-07-31T11:28:14;4.32;;;3.20;;
12762;SDS011;6445;52.490;13.378;2023-07-31T11:30:41;5.95;;;3.60;;
12762;SDS011;6445;52.490;13.378;2023-07-31T11:33:08;5.90;;;3.33;;
12762;SDS011;6445;52.490;13.378;2023-07-31T11:35:35;11.15;;;3.28;;
12762;SDS011;6445;52.490;13.378;2023-07-31T11:38:10;5.50;;;3.40;;
12762;SDS011;6445;52.490;13.378;2023-07-31T11:40:43;6.88;;;3.33;;
12762;SDS011;6445;52.490;13.378;2023-07-31T11:43:09;4.13;;;2.90;;
12762;SDS011;6445;52.490;13.378;2023-07-31T11:45:36;5.95;;;3.10;;
12762;SDS011;6445;52.490;13.378;2023-07-31T11:48:01;7.60;;;3.25;;
12762;SDS011;6445;52.490;13.378;2023-07-31T11:50:28;5.47;;;3.00;;
12762;SDS011;6445;52.490;13.378;2023-07-31T11:52:55;6.00;;;3.00;;
12762;SDS011;6445;52.490;13.378;2023-07-31T11:55:24;4.50;;;3.22;;
12762;SDS011;6445;52.490;13.378;2023-07-31T11:57:50;6.57;;;3.17;;
12762;SDS011;6445;52.490;13.378;2023-07-31T12:00:16;5.68;;;3.53;;
12762;SDS011;6445;52.490;13.378;2023-07-31T12:02:42;6.22;;;3.72;;
12762;SDS011;6445;52.490;13.378;2023-07-31T12:05:11;7.18;;;3.15;;
12762;SDS011;6445;52.490;13.378;2023-07-31T12:07:47;5.95;;;2.88;;
12762;SDS011;6445;52.490;13.378;2023-07-31T12:15:39;4.28;;;2.92;;
12762;SDS011;6445;52.490;13.378;2023-07-31T12:18:06;6.43;;;3.50;;
12762;SDS011;6445;52.490;13.378;2023-07-31T12:20:47;4.35;;;3.10;;
12762;SDS011;6445;52.490;13.378;2023-07-31T12:23:14;5.00;;;2.95;;
12762;SDS011;6445;52.490;13.378;2023-07-31T12:25:43;6.55;;;3.15;;
12762;SDS011;6445;52.490;13.378;2023-07-31T12:28:09;5.63;;;2.95;;
12762;SDS011;6445;52.490;13.378;2023-07-31T12:30:38;4.75;;;3.10;;
12762;SDS011;6445;52.490;13.378;2023-07-31T12:33:12;5.78;;;3.08;;
12762;SDS011;6445;52.490;13.378;2023-07-31T12:35:41;4.93;;;3.10;;
12762;SDS011;6445;52.490;13.378;2023-07-31T12:38:08;4.07;;;2.83;;
12762;SDS011;6445;52.490;13.378;2023-07-31T12:40:36;8.00;;;3.13;;
12762;SDS011;6445;52.490;13.378;2023-07-31T12:43:03;5.22;;;2.70;;
12762;SDS011;6445;52.490;13.378;2023-07-31T12:45:29;7.20;;;3.05;;
12762;SDS011;6445;52.490;13.378;2023-07-31T12:47:55;4.38;;;2.75;;
12762;SDS011;6445;52.490;13.378;2023-07-31T12:50:21;4.72;;;2.92;;
12762;SDS011;6445;52.490;13.378;2023-07-31T12:52:46;3.35;;;2.75;;
12762;SDS011;6445;52.490;13.378;2023-07-31T12:55:11;2.97;;;2.25;;
12762;SDS011;6445;52.490;13.378;2023-07-31T12:57:37;5.75;;;2.40;;
12762;SDS011;6445;52.490;13.378;2023-07-31T13:00:02;3.47;;;2.33;;
12762;SDS011;6445;52.490;13.378;2023-07-31T13:02:28;3.03;;;2.08;;
12762;SDS011;6445;52.490;13.378;2023-07-31T13:04:53;2.60;;;2.22;;
12762;SDS011;6445;52.490;13.378;2023-07-31T13:07:19;7.53;;;2.38;;
12762;SDS011;6445;52.490;13.378;2023-07-31T13:09:44;3.53;;;2.33;;
12762;SDS011;6445;52.490;13.378;2023-07-31T13:12:09;6.22;;;2.60;;
12762;SDS011;6445;52.490;13.378;2023-07-31T13:14:35;4.22;;;2.42;;
12762;SDS011;6445;52.490;13.378;2023-07-31T13:17:00;5.88;;;2.28;;
12762;SDS011;6445;52.490;13.378;2023-07-31T13:19:25;4.45;;;2.40;;
12762;SDS011;6445;52.490;13.378;2023-07-31T13:21:50;3.50;;;2.35;;
12762;SDS011;6445;52.490;13.378;2023-07-31T13:24:16;4.18;;;2.17;;
12762;SDS011;6445;52.490;13.378;2023-07-31T13:26:41;4.35;;;2.47;;
12762;SDS011;6445;52.490;13.378;2023-07-31T13:29:06;5.20;;;2.50;;
12762;SDS011;6445;52.490;13.378;2023-07-31T13:31:31;3.97;;;2.45;;
12762;SDS011;6445;52.490;13.378;2023-07-31T13:33:57;3.95;;;2.60;;
12762;SDS011;6445;52.490;13.378;2023-07-31T13:36:22;5.13;;;2.72;;
12762;SDS011;6445;52.490;13.378;2023-07-31T13:38:47;4.50;;;2.70;;
12762;SDS011;6445;52.490;13.378;2023-07-31T13:41:13;6.45;;;2.95;;
12762;SDS011;6445;52.490;13.378;2023-07-31T13:43:38;6.88;;;2.95;;
12762;SDS011;6445;52.490;13.378;2023-07-31T13:46:03;5.20;;;2.80;;
12762;SDS011;6445;52.490;13.378;2023-07-31T13:48:32;5.13;;;3.75;;
12762;SDS011;6445;52.490;13.378;2023-07-31T13:50:59;6.72;;;3.28;;
12762;SDS011;6445;52.490;13.378;2023-07-31T13:53:24;6.55;;;2.95;;
12762;SDS011;6445;52.490;13.378;2023-07-31T13:55:49;4.80;;;2.97;;
12762;SDS011;6445;52.490;13.378;2023-07-31T13:58:14;5.35;;;3.08;;
12762;SDS011;6445;52.490;13.378;2023-07-31T14:00:40;5.05;;;3.28;;
12762;SDS011;6445;52.490;13.378;2023-07-31T14:03:05;3.40;;;2.92;;
12762;SDS011;6445;52.490;13.378;2023-07-31T14:05:30;3.92;;;3.20;;
12762;SDS011;6445;52.490;13.378;2023-07-31T14:07:56;7.05;;;3.08;;
12762;SDS011;6445;52.490;13.378;2023-07-31T14:10:21;5.20;;;3.15;;
12762;SDS011;6445;52.490;13.378;2023-07-31T14:12:47;5.57;;;3.50;;
12762;SDS011;6445;52.490;13.378;2023-07-31T14:15:12;5.60;;;3.33;;
12762;SDS011;6445;52.490;13.378;2023-07-31T14:17:37;4.80;;;3.15;;
12762;SDS011;6445;52.490;13.378;2023-07-31T14:20:03;4.00;;;3.13;;
12762;SDS011;6445;52.490;13.378;2023-07-31T14:22:29;5.80;;;3.28;;
12762;SDS011;6445;52.490;13.378;2023-07-31T14:24:54;5.80;;;4.07;;
12762;SDS011;6445;52.490;13.378;2023-07-31T14:27:20;5.15;;;3.38;;
12762;SDS011;6445;52.490;13.378;2023-07-31T14:29:45;5.78;;;3.17;;
12762;SDS011;6445;52.490;13.378;2023-07-31T14:32:10;6.53;;;3.30;;
12762;SDS011;6445;52.490;13.378;2023-07-31T14:34:35;4.00;;;2.90;;
12762;SDS011;6445;52.490;13.378;2023-07-31T14:37:01;5.82;;;3.20;;
12762;SDS011;6445;52.490;13.378;2023-07-31T14:39:26;6.50;;;3.17;;
12762;SDS011;6445;52.490;13.378;2023-07-31T14:41:51;5.00;;;3.10;;
12762;SDS011;6445;52.490;13.378;2023-07-31T14:44:16;5.85;;;3.17;;
12762;SDS011;6445;52.490;13.378;2023-07-31T14:46:42;5.43;;;3.40;;
12762;SDS011;6445;52.490;13.378;2023-07-31T14:49:07;5.45;;;3.03;;
12762;SDS011;6445;52.490;13.378;2023-07-31T14:51:32;4.85;;;3.15;;
12762;SDS011;6445;52.490;13.378;2023-07-31T14:53:57;3.10;;;2.67;;
12762;SDS011;6445;52.490;13.378;2023-07-31T14:56:23;4.45;;;2.97;;
12762;SDS011;6445;52.490;13.378;2023-07-31T14:58:48;4.63;;;3.20;;
12762;SDS011;6445;52.490;13.378;2023-07-31T15:01:13;3.63;;;2.90;;
12762;SDS011;6445;52.490;13.378;2023-07-31T15:03:38;5.35;;;3.10;;